createdAt,value
2018-06-04T00:00:05.389Z,90.43
2018-06-04T00:02:08.592Z,64.53
2018-06-04T00:04:12.809Z,64.80
2018-06-04T00:06:16.009Z,66.10
2018-06-04T00:08:19.152Z,76.33
2018-06-04T00:10:22.293Z,76.83
2018-06-04T00:12:25.448Z,74.07
2018-06-04T00:14:28.616Z,65.90
2018-06-04T00:16:31.767Z,59.20
2018-06-04T00:18:34.917Z,86.23
2018-06-04T00:20:38.061Z,69.43
2018-06-04T00:22:41.288Z,69.37
2018-06-04T00:24:44.204Z,70.70
2018-06-04T00:26:47.360Z,57.77
2018-06-04T00:28:50.776Z,60.87
2018-06-04T00:30:53.917Z,68.43
2018-06-04T00:32:57.089Z,74.70
2018-06-04T00:35:00.231Z,85.60
2018-06-04T00:37:03.379Z,75.93
2018-06-04T00:39:07.162Z,76.17
2018-06-04T00:41:10.296Z,78.77
2018-06-04T00:43:13.424Z,85.50
2018-06-04T00:45:16.557Z,93.03
2018-06-04T00:47:19.921Z,74.37
2018-06-04T00:49:23.062Z,80.53
2018-06-04T00:51:26.217Z,65.83
2018-06-04T00:53:29.353Z,70.63
2018-06-04T00:55:37.508Z,64.83
2018-06-04T00:57:40.645Z,64.63
2018-06-04T00:59:43.787Z,72.30
2018-06-04T01:01:46.927Z,59.63
2018-06-04T01:03:50.089Z,63.50
2018-06-04T01:05:53.236Z,63.67
2018-06-04T01:07:56.384Z,69.23
2018-06-04T01:09:59.605Z,79.83
2018-06-04T01:12:02.745Z,81.90
2018-06-04T01:14:05.879Z,80.27
2018-06-04T01:16:09.004Z,74.23
2018-06-04T01:18:12.143Z,78.27
2018-06-04T01:20:15.316Z,82.10
2018-06-04T01:22:18.470Z,89.00
2018-06-04T01:24:21.604Z,84.67
2018-06-04T01:26:24.748Z,100.00
2018-06-04T01:28:27.896Z,82.37
2018-06-04T01:30:31.082Z,89.57
2018-06-04T01:32:34.228Z,94.87
2018-06-04T01:34:37.420Z,101.13
2018-06-04T01:36:40.567Z,105.70
2018-06-04T01:38:43.742Z,112.50
2018-06-04T01:40:46.892Z,91.13
2018-06-04T01:42:50.069Z,102.57
2018-06-04T01:44:53.218Z,110.13
2018-06-04T01:46:56.406Z,96.00
2018-06-04T01:48:59.572Z,100.53
2018-06-04T01:51:02.733Z,109.63
2018-06-04T01:53:05.885Z,105.50
2018-06-04T01:55:09.020Z,97.17
2018-06-04T01:57:12.180Z,110.97
2018-06-04T01:59:15.347Z,104.37
2018-06-04T02:01:18.509Z,114.27
2018-06-04T02:03:21.668Z,170.20
2018-06-04T02:05:24.811Z,175.47
2018-06-04T02:07:27.974Z,164.00
2018-06-04T02:09:31.127Z,148.43
2018-06-04T02:11:34.277Z,184.73
2018-06-04T02:13:37.504Z,188.40
2018-06-04T02:15:40.662Z,188.63
2018-06-04T02:17:43.828Z,176.53
2018-06-04T02:19:46.992Z,165.33
2018-06-04T02:21:50.217Z,160.73
2018-06-04T02:23:53.368Z,126.60
2018-06-04T02:25:56.515Z,122.30
2018-06-04T02:27:59.661Z,119.80
2018-06-04T02:30:02.808Z,133.97
2018-06-04T02:32:06.011Z,110.93
2018-06-04T02:34:09.151Z,127.90
2018-06-04T02:36:12.305Z,151.00
2018-06-04T02:38:15.469Z,143.77
2018-06-04T02:40:18.608Z,133.03
2018-06-04T02:42:21.749Z,120.80
2018-06-04T02:44:24.891Z,125.70
2018-06-04T02:46:28.052Z,122.67
2018-06-04T02:48:31.195Z,110.10
2018-06-04T02:50:34.341Z,106.97
2018-06-04T02:52:37.540Z,116.43
2018-06-04T02:54:40.512Z,101.03
2018-06-04T02:56:43.654Z,115.10
2018-06-04T02:58:46.808Z,111.37
2018-06-04T03:00:49.961Z,108.80
2018-06-04T03:02:53.164Z,113.10
2018-06-04T03:04:56.309Z,110.50
2018-06-04T03:06:59.458Z,111.20
2018-06-04T03:09:02.669Z,113.43
2018-06-04T03:11:05.821Z,110.30
2018-06-04T03:13:08.975Z,117.93
2018-06-04T03:15:12.128Z,133.33
2018-06-04T03:17:15.295Z,131.17
2018-06-04T03:19:18.442Z,148.17
2018-06-04T03:21:21.605Z,145.93
2018-06-04T03:23:24.742Z,156.67
2018-06-04T03:25:27.893Z,156.20
2018-06-04T03:27:31.048Z,158.70
2018-06-04T03:29:34.219Z,162.53
2018-06-04T03:31:37.384Z,154.33
2018-06-04T03:33:40.536Z,148.63
2018-06-04T03:35:43.710Z,179.43
2018-06-04T03:37:46.858Z,177.07
2018-06-04T03:39:50.007Z,172.00
2018-06-04T03:41:53.139Z,186.50
2018-06-04T03:43:56.277Z,163.63
2018-06-04T03:45:59.420Z,164.53
2018-06-04T03:48:02.567Z,143.73
2018-06-04T03:50:05.701Z,132.17
2018-06-04T03:52:08.911Z,114.03
2018-06-04T03:54:11.977Z,130.87
2018-06-04T03:56:15.195Z,128.57
2018-06-04T03:58:18.337Z,119.33
2018-06-04T04:00:21.497Z,135.53
2018-06-04T04:02:24.647Z,144.33
2018-06-04T04:04:27.804Z,131.13
2018-06-04T04:06:31.022Z,134.67
2018-06-04T04:08:34.160Z,114.57
2018-06-04T04:10:37.477Z,117.20
2018-06-04T04:12:40.608Z,124.37
2018-06-04T04:14:43.765Z,132.47
2018-06-04T04:16:47.188Z,112.27
2018-06-04T04:18:50.324Z,100.13
2018-06-04T04:20:53.490Z,127.07
2018-06-04T04:22:56.645Z,99.90
2018-06-04T04:24:59.568Z,98.93
2018-06-04T04:27:02.704Z,114.10
2018-06-04T04:29:05.936Z,103.70
2018-06-04T04:31:09.084Z,108.93
2018-06-04T04:33:12.220Z,97.77
2018-06-04T04:35:15.359Z,90.33
2018-06-04T04:37:18.490Z,93.90
2018-06-04T04:39:21.721Z,118.27
2018-06-04T04:41:24.868Z,98.27
2018-06-04T04:43:27.987Z,93.30
2018-06-04T04:45:31.131Z,100.77
2018-06-04T04:47:34.264Z,104.70
2018-06-04T04:49:37.423Z,91.43
2018-06-04T04:51:40.580Z,105.27
2018-06-04T04:53:43.774Z,108.33
2018-06-04T04:55:46.909Z,91.77
2018-06-04T04:57:50.041Z,76.30
2018-06-04T04:59:53.260Z,59.70
2018-06-04T05:01:56.400Z,59.03
2018-06-04T05:03:59.548Z,55.20
2018-06-04T05:06:02.692Z,52.87
2018-06-04T05:08:05.840Z,51.97
2018-06-04T05:10:08.986Z,50.47
2018-06-04T05:12:12.126Z,49.37
2018-06-04T05:14:15.252Z,46.97
2018-06-04T05:16:18.388Z,50.37
2018-06-04T05:18:21.560Z,46.37
2018-06-04T05:20:24.729Z,40.17
2018-06-04T05:22:27.959Z,47.43
2018-06-04T05:24:31.102Z,44.37
2018-06-04T05:26:34.246Z,45.13
2018-06-04T05:28:37.361Z,47.77
2018-06-04T05:30:40.496Z,43.33
2018-06-04T05:32:43.643Z,48.90
2018-06-04T05:34:46.780Z,45.50
2018-06-04T05:36:49.939Z,41.90
2018-06-04T05:38:53.144Z,45.10
2018-06-04T05:40:56.054Z,38.80
2018-06-04T05:42:59.208Z,39.60
2018-06-04T05:45:02.350Z,44.10
2018-06-04T05:47:05.606Z,41.83
2018-06-04T05:49:08.745Z,35.90
2018-06-04T05:51:11.904Z,45.63
2018-06-04T05:53:15.060Z,41.90
2018-06-04T05:55:19.798Z,38.53
2018-06-04T05:57:22.948Z,40.90
2018-06-04T05:59:26.103Z,41.93
2018-06-04T06:01:29.240Z,43.30
2018-06-04T06:03:32.383Z,36.53
2018-06-04T06:05:35.537Z,37.00
2018-06-04T06:07:38.754Z,47.27
2018-06-04T06:09:41.912Z,41.73
2018-06-04T06:11:45.093Z,41.63
2018-06-04T06:13:48.255Z,37.53
2018-06-04T06:15:51.401Z,36.00
2018-06-04T06:17:54.546Z,40.37
2018-06-04T06:19:57.699Z,40.60
2018-06-04T06:22:00.660Z,49.27
2018-06-04T06:24:03.806Z,41.33
2018-06-04T06:26:06.961Z,39.00
2018-06-04T06:28:10.189Z,37.80
2018-06-04T06:30:13.422Z,44.03
2018-06-04T06:32:16.396Z,41.67
2018-06-04T06:34:19.545Z,39.23
2018-06-04T06:36:22.860Z,40.00
2018-06-04T06:38:26.029Z,39.00
2018-06-04T06:40:29.171Z,43.23
2018-06-04T06:42:32.321Z,39.73
2018-06-04T06:44:35.552Z,42.67
2018-06-04T06:46:38.736Z,42.33
2018-06-04T06:48:41.939Z,42.40
2018-06-04T06:50:45.204Z,42.73
2018-06-04T06:52:48.357Z,38.33
2018-06-04T06:54:51.514Z,42.10
2018-06-04T06:56:54.822Z,46.13
2018-06-04T06:58:58.061Z,53.43
2018-06-04T07:01:01.293Z,58.83
2018-06-04T07:03:04.469Z,56.60
2018-06-04T07:05:07.622Z,61.60
2018-06-04T07:07:10.785Z,53.10
2018-06-04T07:09:13.765Z,54.43
2018-06-04T07:11:16.687Z,61.17
2018-06-04T07:13:19.848Z,63.50
2018-06-04T07:15:23.028Z,54.27
2018-06-04T07:17:26.488Z,65.03
2018-06-04T07:19:29.670Z,61.80
2018-06-04T07:21:32.893Z,64.03
2018-06-04T07:23:36.103Z,57.80
2018-06-04T07:25:39.591Z,61.87
2018-06-04T07:27:42.568Z,66.30
2018-06-04T07:29:45.785Z,58.87
2018-06-04T07:31:49.064Z,75.80
2018-06-04T07:33:52.233Z,69.10
2018-06-04T07:36:00.936Z,69.90
2018-06-04T07:38:04.113Z,71.77
2018-06-04T07:40:07.384Z,72.63
2018-06-04T07:42:10.554Z,71.97
2018-06-04T07:44:13.732Z,62.70
2018-06-04T07:46:25.653Z,62.60
2018-06-04T07:48:28.840Z,85.10
2018-06-04T07:50:32.042Z,70.17
2018-06-04T07:52:35.303Z,77.00
2018-06-04T07:54:38.191Z,68.40
2018-06-04T07:56:41.380Z,72.23
2018-06-04T07:58:44.536Z,76.20
2018-06-04T08:00:47.742Z,73.47
2018-06-04T08:02:50.845Z,73.77
2018-06-04T08:04:54.004Z,72.20
2018-06-04T08:06:57.255Z,65.67
2018-06-04T08:09:00.175Z,63.10
2018-06-04T08:11:03.325Z,65.30
2018-06-04T08:13:06.532Z,72.17
2018-06-04T08:15:09.704Z,68.70
2018-06-04T08:17:12.861Z,78.67
2018-06-04T08:19:16.018Z,69.50
2018-06-04T08:21:19.193Z,66.73
2018-06-04T08:23:22.372Z,70.70
2018-06-04T08:25:25.514Z,68.57
2018-06-04T08:27:28.655Z,61.23
2018-06-04T08:29:31.824Z,66.07
2018-06-04T08:31:34.996Z,55.00
2018-06-04T08:33:38.151Z,60.10
2018-06-04T08:35:41.293Z,63.60
2018-06-04T08:37:44.465Z,64.90
2018-06-04T08:39:47.739Z,66.10
2018-06-04T08:41:50.893Z,52.40
2018-06-04T08:43:54.039Z,55.63
2018-06-04T08:45:57.198Z,52.13
2018-06-04T08:48:00.693Z,57.97
2018-06-04T08:50:03.860Z,60.23
2018-06-04T08:52:07.030Z,61.07
2018-06-04T08:54:11.085Z,53.27
2018-06-04T08:56:14.270Z,61.10
2018-06-04T08:58:17.389Z,53.67
2018-06-04T09:00:20.545Z,62.30
2018-06-04T09:02:23.697Z,58.77
2018-06-04T09:04:26.849Z,68.33
2018-06-04T09:06:30.021Z,72.83
2018-06-04T09:08:33.348Z,59.93
2018-06-04T09:10:36.496Z,62.57
2018-06-04T09:12:39.659Z,54.37
2018-06-04T09:14:42.829Z,66.83
2018-06-04T09:16:45.989Z,58.93
2018-06-04T09:18:49.152Z,52.80
2018-06-04T09:20:52.301Z,63.77
2018-06-04T09:22:55.455Z,52.27
2018-06-04T09:24:58.598Z,62.87
2018-06-04T09:27:01.763Z,50.70
2018-06-04T09:29:04.981Z,50.80
2018-06-04T09:31:08.145Z,49.80
2018-06-04T09:33:11.288Z,49.97
2018-06-04T09:35:14.415Z,41.67
2018-06-04T09:37:17.676Z,51.37
2018-06-04T09:39:20.842Z,43.20
2018-06-04T09:41:23.988Z,41.87
2018-06-04T09:43:27.157Z,48.00
2018-06-04T09:45:30.316Z,42.73
2018-06-04T09:47:33.353Z,35.83
2018-06-04T09:49:36.456Z,41.53
2018-06-04T09:51:39.612Z,39.13
2018-06-04T09:53:42.870Z,34.20
2018-06-04T09:55:46.013Z,31.90
2018-06-04T09:57:49.248Z,38.40
2018-06-04T09:59:52.400Z,31.10
2018-06-04T10:01:55.642Z,35.17
2018-06-04T10:03:58.779Z,44.43
2018-06-04T10:06:01.929Z,46.00
2018-06-04T10:08:05.071Z,46.20
2018-06-04T10:10:08.212Z,54.47
2018-06-04T10:12:11.366Z,52.10
2018-06-04T10:14:14.519Z,54.70
2018-06-04T10:16:17.666Z,47.73
2018-06-04T10:18:20.833Z,55.73
2018-06-04T10:20:24.086Z,57.50
2018-06-04T10:22:27.003Z,60.77
2018-06-04T10:24:30.199Z,53.53
2018-06-04T10:26:33.349Z,60.60
2018-06-04T10:28:36.259Z,61.80
2018-06-04T10:30:39.396Z,56.30
2018-06-04T10:32:42.545Z,74.23
2018-06-04T10:34:45.704Z,59.70
2018-06-04T10:36:48.863Z,55.37
2018-06-04T10:38:52.016Z,65.10
2018-06-04T10:40:55.195Z,59.73
2018-06-04T10:42:58.339Z,54.17
2018-06-04T10:45:01.478Z,55.60
2018-06-04T10:47:04.637Z,54.30
2018-06-04T10:49:07.773Z,53.00
2018-06-04T10:51:10.924Z,57.10
2018-06-04T10:53:14.230Z,57.23
2018-06-04T10:55:17.396Z,59.20
2018-06-04T10:57:20.536Z,54.80
2018-06-04T10:59:23.693Z,46.60
2018-06-04T11:01:26.836Z,50.27
2018-06-04T11:03:29.991Z,57.03
2018-06-04T11:05:33.168Z,56.90
2018-06-04T11:07:36.320Z,51.37
2018-06-04T11:09:39.484Z,51.23
2018-06-04T11:11:42.776Z,49.10
2018-06-04T11:13:46.020Z,56.43
2018-06-04T11:15:49.165Z,59.80
2018-06-04T11:17:52.308Z,56.37
2018-06-04T11:19:55.458Z,52.17
2018-06-04T11:21:58.616Z,58.97
2018-06-04T11:24:01.796Z,50.40
2018-06-04T11:26:04.922Z,50.77
2018-06-04T11:28:08.056Z,45.23
2018-06-04T11:30:11.209Z,47.67
2018-06-04T11:32:14.355Z,46.53
2018-06-04T11:34:17.749Z,42.77
2018-06-04T11:36:20.884Z,49.17
2018-06-04T11:38:23.852Z,46.10
2018-06-04T11:40:26.990Z,44.60
2018-06-04T11:42:30.124Z,38.80
2018-06-04T11:44:33.261Z,38.27
2018-06-04T11:46:36.478Z,42.97
2018-06-04T11:48:39.616Z,42.10
2018-06-04T11:50:42.736Z,41.63
2018-06-04T11:52:45.869Z,48.93
2018-06-04T11:54:48.782Z,49.33
2018-06-04T11:56:51.908Z,44.37
2018-06-04T11:58:55.051Z,41.07
2018-06-04T12:00:58.207Z,39.27
2018-06-04T12:03:01.363Z,45.10
2018-06-04T12:05:04.520Z,43.97
2018-06-04T12:07:07.660Z,50.43
2018-06-04T12:09:10.836Z,40.07
2018-06-04T12:11:13.971Z,42.77
2018-06-04T12:13:17.115Z,47.27
2018-06-04T12:15:20.243Z,50.00
2018-06-04T12:17:23.396Z,52.23
2018-06-04T12:19:26.549Z,52.80
2018-06-04T12:21:29.944Z,40.30
2018-06-04T12:23:33.085Z,46.00
2018-06-04T12:25:36.216Z,49.67
2018-06-04T12:27:39.371Z,49.00
2018-06-04T12:29:42.553Z,52.50
2018-06-04T12:31:45.693Z,51.57
2018-06-04T12:33:48.831Z,47.40
2018-06-04T12:35:51.955Z,42.37
2018-06-04T12:37:55.107Z,54.67
2018-06-04T12:39:58.268Z,48.33
2018-06-04T12:42:01.219Z,45.80
2018-06-04T12:44:04.367Z,60.50
2018-06-04T12:46:07.495Z,48.37
2018-06-04T12:48:10.673Z,46.03
2018-06-04T12:50:13.760Z,41.47
2018-06-04T12:52:16.900Z,44.80
2018-06-04T12:54:20.024Z,45.63
2018-06-04T12:56:23.167Z,44.63
2018-06-04T12:58:26.300Z,44.60
2018-06-04T13:00:29.541Z,41.10
2018-06-04T13:02:32.659Z,41.60
2018-06-04T13:04:35.861Z,49.83
2018-06-04T13:06:38.933Z,46.07
2018-06-04T13:08:42.311Z,46.10
2018-06-04T13:10:45.460Z,48.93
2018-06-04T13:12:48.664Z,55.13
2018-06-04T13:14:51.811Z,48.10
2018-06-04T13:16:54.721Z,46.47
2018-06-04T13:18:57.851Z,48.57
2018-06-04T13:21:00.988Z,52.47
2018-06-04T13:23:04.115Z,55.90
2018-06-04T13:25:07.236Z,46.17
2018-06-04T13:27:10.207Z,58.10
2018-06-04T13:29:13.356Z,45.97
2018-06-04T13:31:16.476Z,49.17
2018-06-04T13:33:19.615Z,55.63
2018-06-04T13:35:22.743Z,50.40
2018-06-04T13:37:25.879Z,51.50
2018-06-04T13:39:30.098Z,51.90
2018-06-04T13:41:33.224Z,49.77
2018-06-04T13:43:36.424Z,51.50
2018-06-04T13:45:42.880Z,47.20
2018-06-04T13:47:46.054Z,52.20
2018-06-04T13:49:49.196Z,54.77
2018-06-04T13:51:52.488Z,47.83
2018-06-04T13:53:55.837Z,46.10
2018-06-04T13:55:59.000Z,56.43
2018-06-04T13:58:02.144Z,43.60
2018-06-04T14:00:05.544Z,47.63
2018-06-04T14:02:08.795Z,44.50
2018-06-04T14:04:11.968Z,38.17
2018-06-04T14:06:15.127Z,43.10
2018-06-04T14:08:18.251Z,44.63
2018-06-04T14:10:21.481Z,48.80
2018-06-04T14:12:24.609Z,37.93
2018-06-04T14:14:27.748Z,39.93
2018-06-04T14:16:31.584Z,41.00
2018-06-04T14:18:34.749Z,43.60
2018-06-04T14:20:37.883Z,41.13
2018-06-04T14:22:41.021Z,37.93
2018-06-04T14:24:44.167Z,48.90
2018-06-04T14:26:47.099Z,39.33
2018-06-04T14:28:50.245Z,41.60
2018-06-04T14:30:53.400Z,38.80
2018-06-04T14:32:56.551Z,30.00
2018-06-04T14:34:59.792Z,34.40
2018-06-04T14:37:02.939Z,41.20
2018-06-04T14:39:08.609Z,35.30
2018-06-04T14:41:11.720Z,39.03
2018-06-04T14:43:14.879Z,35.37
2018-06-04T14:45:18.040Z,36.80
2018-06-04T14:47:21.209Z,32.50
2018-06-04T14:49:24.341Z,31.93
2018-06-04T14:51:27.511Z,36.73
2018-06-04T14:53:30.668Z,26.07
2018-06-04T14:55:33.912Z,35.70
2018-06-04T14:57:37.056Z,35.90
2018-06-04T14:59:40.191Z,28.73
2018-06-04T15:01:43.167Z,24.23
2018-06-04T15:03:46.343Z,25.80
2018-06-04T15:05:49.504Z,33.83
2018-06-04T15:07:52.664Z,26.17
2018-06-04T15:09:55.841Z,26.53
2018-06-04T15:11:58.976Z,24.13
2018-06-04T15:14:02.163Z,27.90
2018-06-04T15:16:05.321Z,25.77
2018-06-04T15:18:08.473Z,36.03
2018-06-04T15:20:12.212Z,28.70
2018-06-04T15:22:15.396Z,26.00
2018-06-04T15:24:18.600Z,30.70
2018-06-04T15:26:21.785Z,22.43
2018-06-04T15:28:24.943Z,30.33
2018-06-04T15:30:28.096Z,24.27
2018-06-04T15:32:31.009Z,30.67
2018-06-04T15:34:34.164Z,23.33
2018-06-04T15:36:37.076Z,25.60
2018-06-04T15:38:40.320Z,25.30
2018-06-04T15:40:43.779Z,29.07
2018-06-04T15:42:46.912Z,28.40
2018-06-04T15:44:49.842Z,25.53
2018-06-04T15:46:52.984Z,32.03
2018-06-04T15:48:56.955Z,28.90
2018-06-04T15:51:00.204Z,21.10
2018-06-04T15:53:03.548Z,25.53
2018-06-04T15:55:06.729Z,20.53
2018-06-04T15:57:09.888Z,21.53
2018-06-04T15:59:13.024Z,23.10
2018-06-04T16:01:16.037Z,24.20
2018-06-04T16:03:19.227Z,27.10
2018-06-04T16:05:22.375Z,33.23
2018-06-04T16:07:25.516Z,26.63
2018-06-04T16:09:28.706Z,30.03
2018-06-04T16:11:31.804Z,30.33
2018-06-04T16:13:34.933Z,27.40
2018-06-04T16:15:37.895Z,25.57
2018-06-04T16:17:41.032Z,31.17
2018-06-04T16:19:44.261Z,27.10
2018-06-04T16:21:47.420Z,27.20
2018-06-04T16:23:50.779Z,25.50
2018-06-04T16:25:53.900Z,25.47
2018-06-04T16:27:57.049Z,32.57
2018-06-04T16:30:00.176Z,23.20
2018-06-04T16:32:03.350Z,22.17
2018-06-04T16:34:06.467Z,25.47
2018-06-04T16:36:09.608Z,23.80
2018-06-04T16:38:12.799Z,24.47
2018-06-04T16:40:15.937Z,20.37
2018-06-04T16:42:19.090Z,20.83
2018-06-04T16:44:22.221Z,23.90
2018-06-04T16:46:25.125Z,23.70
2018-06-04T16:48:28.271Z,24.97
2018-06-04T16:50:31.467Z,22.90
2018-06-04T16:52:34.608Z,22.90
2018-06-04T16:54:37.727Z,25.83
2018-06-04T16:56:40.880Z,21.10
2018-06-04T16:58:44.016Z,23.87
2018-06-04T17:00:46.952Z,22.63
2018-06-04T17:02:50.098Z,25.83
2018-06-04T17:04:53.246Z,27.93
2018-06-04T17:06:56.377Z,25.00
2018-06-04T17:08:59.516Z,24.77
2018-06-04T17:11:03.047Z,25.97
2018-06-04T17:13:06.295Z,22.47
2018-06-04T17:15:09.909Z,21.33
2018-06-04T17:17:13.096Z,25.53
2018-06-04T17:19:16.261Z,26.10
2018-06-04T17:21:19.362Z,24.47
2018-06-04T17:23:22.503Z,22.13
2018-06-04T17:25:25.636Z,23.77
2018-06-04T17:27:28.767Z,28.40
2018-06-04T17:29:31.916Z,22.30
2018-06-04T17:31:35.039Z,23.80
2018-06-04T17:33:38.177Z,26.50
2018-06-04T17:35:41.313Z,27.17
2018-06-04T17:37:44.444Z,23.60
2018-06-04T17:39:47.600Z,18.57
2018-06-04T17:41:51.484Z,22.03
2018-06-04T17:43:54.617Z,23.40
2018-06-04T17:45:57.758Z,24.30
2018-06-04T17:48:00.892Z,20.10
2018-06-04T17:50:04.145Z,22.30
2018-06-04T17:52:07.527Z,18.37
2018-06-04T17:54:10.980Z,23.07
2018-06-04T17:56:14.091Z,19.43
2018-06-04T17:58:17.243Z,20.27
2018-06-04T18:00:20.466Z,17.97
2018-06-04T18:02:23.597Z,18.70
2018-06-04T18:04:26.719Z,17.33
2018-06-04T18:06:30.608Z,19.53
2018-06-04T18:08:33.762Z,21.63
2018-06-04T18:10:36.988Z,20.00
2018-06-04T18:12:40.136Z,20.13
2018-06-04T18:14:43.387Z,16.80
2018-06-04T18:16:46.923Z,20.03
2018-06-04T18:18:50.083Z,16.83
2018-06-04T18:20:53.221Z,20.40
2018-06-04T18:22:56.383Z,24.33
2018-06-04T18:24:59.670Z,13.53
2018-06-04T18:27:03.732Z,21.90
2018-06-04T18:29:06.867Z,16.07
2018-06-04T18:31:10.067Z,18.93
2018-06-04T18:33:13.238Z,13.77
2018-06-04T18:35:16.423Z,16.97
2018-06-04T18:37:19.819Z,17.83
2018-06-04T18:39:23.007Z,16.50
2018-06-04T18:41:26.166Z,18.87
2018-06-04T18:43:29.312Z,15.50
2018-06-04T18:45:32.629Z,19.60
2018-06-04T18:47:35.884Z,15.80
2018-06-04T18:49:39.064Z,19.00
2018-06-04T18:51:42.360Z,22.43
2018-06-04T18:53:45.572Z,20.70
2018-06-04T18:55:48.593Z,20.73
2018-06-04T18:57:51.849Z,23.90
2018-06-04T18:59:55.072Z,27.30
2018-06-04T19:01:58.287Z,19.90
2018-06-04T19:04:01.497Z,22.57
2018-06-04T19:06:04.704Z,20.67
2018-06-04T19:08:07.941Z,18.20
2018-06-04T19:10:11.160Z,21.13
2018-06-04T19:12:14.417Z,22.77
2018-06-04T19:14:17.582Z,17.57
2018-06-04T19:16:20.779Z,17.40
2018-06-04T19:18:24.004Z,17.17
2018-06-04T19:20:27.203Z,21.47
2018-06-04T19:22:30.369Z,21.47
2018-06-04T19:24:33.633Z,22.00
2018-06-04T19:26:36.808Z,22.33
2018-06-04T19:28:39.990Z,20.17
2018-06-04T19:30:43.172Z,23.70
2018-06-04T19:32:46.342Z,20.50
2018-06-04T19:34:49.496Z,17.50
2018-06-04T19:36:52.813Z,19.90
2018-06-04T19:38:56.049Z,19.53
2018-06-04T19:40:59.259Z,24.07
2018-06-04T19:43:02.476Z,22.43
2018-06-04T19:45:05.683Z,24.50
2018-06-04T19:47:08.852Z,22.70
2018-06-04T19:49:12.105Z,22.27
2018-06-04T19:51:15.322Z,28.13
2018-06-04T19:53:18.614Z,19.17
2018-06-04T19:55:22.307Z,27.13
2018-06-04T19:57:27.898Z,27.73
2018-06-04T19:59:31.114Z,24.20
2018-06-04T20:01:34.303Z,26.33
2018-06-04T20:03:37.469Z,25.43
2018-06-04T20:05:40.693Z,27.50
2018-06-04T20:07:43.865Z,23.27
2018-06-04T20:09:47.106Z,28.37
2018-06-04T20:11:50.388Z,27.73
2018-06-04T20:13:53.553Z,28.37
2018-06-04T20:15:56.815Z,31.83
2018-06-04T20:18:00.237Z,31.93
2018-06-04T20:20:03.388Z,28.60
2018-06-04T20:22:06.536Z,28.13
2018-06-04T20:24:09.737Z,27.80
2018-06-04T20:26:12.937Z,29.40
2018-06-04T20:28:16.190Z,32.40
2018-06-04T20:30:19.209Z,31.07
2018-06-04T20:32:22.376Z,26.47
2018-06-04T20:34:25.553Z,33.30
2018-06-04T20:36:28.769Z,35.03
2018-06-04T20:38:31.891Z,32.47
2018-06-04T20:40:35.138Z,34.90
2018-06-04T20:42:38.319Z,33.67
2018-06-04T20:44:41.526Z,31.20
2018-06-04T20:46:44.700Z,31.30
2018-06-04T20:48:47.891Z,39.73
2018-06-04T20:50:51.080Z,35.77
2018-06-04T20:52:54.288Z,34.43
2018-06-04T20:54:57.536Z,37.70
2018-06-04T20:57:00.665Z,33.03
2018-06-04T20:59:03.844Z,36.23
2018-06-04T21:01:07.015Z,36.27
2018-06-04T21:03:10.204Z,34.10
2018-06-04T21:05:13.405Z,42.33
2018-06-04T21:07:16.648Z,47.00
2018-06-04T21:09:19.914Z,51.83
2018-06-04T21:11:23.085Z,52.17
2018-06-04T21:13:26.302Z,53.40
2018-06-04T21:15:29.524Z,59.57
2018-06-04T21:17:32.789Z,55.00
2018-06-04T21:19:35.959Z,61.00
2018-06-04T21:21:39.139Z,63.50
2018-06-04T21:23:42.491Z,72.40
2018-06-04T21:25:45.707Z,67.03
2018-06-04T21:27:48.886Z,61.53
2018-06-04T21:29:52.736Z,66.50
2018-06-04T21:31:55.972Z,62.50
2018-06-04T21:33:59.160Z,59.70
2018-06-04T21:36:02.445Z,59.40
2018-06-04T21:38:05.645Z,57.77
2018-06-04T21:40:08.779Z,60.80
2018-06-04T21:42:11.949Z,72.90
2018-06-04T21:44:15.183Z,67.83
2018-06-04T21:46:18.371Z,68.23
2018-06-04T21:48:21.637Z,62.77
2018-06-04T21:50:24.824Z,81.20
2018-06-04T21:52:28.077Z,80.13
2018-06-04T21:54:31.322Z,86.00
2018-06-04T21:56:34.490Z,82.63
2018-06-04T21:58:37.699Z,81.83
2018-06-04T22:00:40.904Z,79.87
2018-06-04T22:02:44.073Z,76.00
2018-06-04T22:04:47.318Z,77.03
2018-06-04T22:06:50.483Z,89.33
2018-06-04T22:08:53.475Z,78.67
2018-06-04T22:10:56.664Z,79.87
2018-06-04T22:12:59.882Z,90.10
2018-06-04T22:15:03.092Z,93.77
2018-06-04T22:17:06.750Z,93.40
2018-06-04T22:19:09.988Z,91.60
2018-06-04T22:21:13.148Z,108.17
2018-06-04T22:23:16.431Z,105.20
2018-06-04T22:25:19.601Z,108.50
2018-06-04T22:27:22.789Z,94.53
2018-06-04T22:29:26.001Z,104.40
2018-06-04T22:31:29.179Z,92.17
2018-06-04T22:33:32.361Z,96.23
2018-06-04T22:35:35.584Z,98.57
2018-06-04T22:37:38.964Z,100.47
2018-06-04T22:39:42.176Z,92.33
2018-06-04T22:41:45.397Z,92.70
2018-06-04T22:43:48.664Z,95.20
2018-06-04T22:45:51.848Z,85.93
2018-06-04T22:47:55.071Z,92.07
2018-06-04T22:49:58.290Z,90.87
2018-06-04T22:52:01.467Z,94.70
2018-06-04T22:54:04.681Z,101.17
2018-06-04T22:56:07.852Z,90.63
2018-06-04T22:58:11.075Z,92.87
2018-06-04T23:00:23.116Z,100.97
2018-06-04T23:02:26.385Z,99.17
2018-06-04T23:04:29.594Z,102.57
2018-06-04T23:06:32.737Z,96.27
2018-06-04T23:08:35.938Z,100.47
2018-06-04T23:10:39.155Z,114.60
2018-06-04T23:12:42.360Z,93.03
2018-06-04T23:14:45.594Z,103.93
2018-06-04T23:16:48.783Z,103.37
2018-06-04T23:18:51.947Z,105.60
2018-06-04T23:20:55.193Z,103.63
2018-06-04T23:22:58.377Z,108.73
2018-06-04T23:25:01.541Z,113.27
2018-06-04T23:27:04.777Z,124.10
2018-06-04T23:29:08.043Z,115.97
2018-06-04T23:31:11.256Z,115.20
2018-06-04T23:33:14.453Z,141.83
2018-06-04T23:35:17.670Z,139.10
2018-06-04T23:37:20.894Z,131.43
2018-06-04T23:39:24.124Z,131.07
2018-06-04T23:41:27.399Z,129.37
2018-06-04T23:43:30.590Z,142.07
2018-06-04T23:45:33.743Z,134.40
2018-06-04T23:47:36.952Z,138.57
2018-06-04T23:49:40.157Z,140.83
2018-06-04T23:51:43.331Z,139.13
2018-06-04T23:53:46.553Z,146.73
2018-06-04T23:55:49.751Z,135.63
2018-06-04T23:57:53.737Z,124.30
2018-06-04T23:59:56.928Z,132.77
